< < Back
Terminal Aerodrome Forecast


Current Version              Previous Versions:   1  2  3  4  5  6  7  8  9  

Terminal Aerodrome Forecast

159
FTUS44 KMOB 132358
TAFPNS
TAF
KPNS 132358Z 1400/1424 05006KT P6SM SKC
     FM141500 09007KT P6SM SKC
     FM142100 13008KT P6SM SCT250=

Latest METAR

252
SAUS70 KWBC 142300 RRA
MTRPNS
METAR KPNS 142253Z 13007KT 10SM CLR 13/07 A3019 RMK AO2 SLP226
T01330072


USA.gov is the U.S. government's official web portal to all federal, state and local government web resources and services.